createdAt,value
2018-11-28T00:00:20.276Z,20.31
2018-11-28T00:02:48.475Z,20.34
2018-11-28T00:05:17.046Z,20.40
2018-11-28T00:07:45.255Z,20.43
2018-11-28T00:10:14.071Z,20.44
2018-11-28T00:12:42.450Z,20.46
2018-11-28T00:15:14.213Z,20.47
2018-11-28T00:17:42.759Z,20.46
2018-11-28T00:20:17.631Z,20.45
2018-11-28T00:22:46.376Z,20.46
2018-11-28T00:25:14.944Z,20.45
2018-11-28T00:27:43.388Z,20.42
2018-11-28T00:30:14.930Z,20.44
2018-11-28T00:32:43.391Z,20.41
2018-11-28T00:35:12.299Z,20.43
2018-11-28T00:37:40.502Z,20.42
2018-11-28T00:40:09.556Z,20.39
2018-11-28T00:42:37.755Z,20.37
2018-11-28T00:45:07.808Z,20.37
2018-11-28T00:47:36.288Z,20.36
2018-11-28T00:50:04.919Z,20.35
2018-11-28T00:52:33.138Z,20.33
2018-11-28T00:55:01.651Z,20.32
2018-11-28T00:57:29.871Z,20.32
2018-11-28T00:59:58.054Z,20.31
2018-11-28T01:02:26.304Z,20.31
2018-11-28T01:04:54.559Z,20.28
2018-11-28T01:07:22.755Z,20.28
2018-11-28T01:09:51.291Z,20.27
2018-11-28T01:12:19.503Z,20.26
2018-11-28T01:14:47.948Z,20.26
2018-11-28T01:17:16.155Z,20.28
2018-11-28T01:19:44.688Z,20.33
2018-11-28T01:22:13.210Z,20.36
2018-11-28T01:24:41.410Z,20.37
2018-11-28T01:27:11.294Z,20.39
2018-11-28T01:29:41.439Z,20.40
2018-11-28T01:32:09.636Z,20.41
2018-11-28T01:34:38.155Z,20.42
2018-11-28T01:37:06.668Z,20.42
2018-11-28T01:39:38.410Z,20.41
2018-11-28T01:42:06.626Z,20.42
2018-11-28T01:44:34.823Z,20.40
2018-11-28T01:47:03.048Z,20.40
2018-11-28T01:49:31.237Z,20.39
2018-11-28T01:51:59.443Z,20.38
2018-11-28T01:54:27.648Z,20.37
2018-11-28T01:56:55.839Z,20.35
2018-11-28T01:59:24.662Z,20.34
2018-11-28T02:01:52.854Z,20.29
2018-11-28T02:04:21.367Z,20.29
2018-11-28T02:06:49.844Z,20.30
2018-11-28T02:09:18.047Z,20.28
2018-11-28T02:11:46.325Z,20.27
2018-11-28T02:14:14.528Z,20.24
2018-11-28T02:16:42.726Z,20.24
2018-11-28T02:19:10.951Z,20.23
2018-11-28T02:21:39.159Z,20.23
2018-11-28T02:24:07.364Z,20.21
2018-11-28T02:26:35.573Z,20.20
2018-11-28T02:29:03.859Z,20.20
2018-11-28T02:31:32.081Z,20.21
2018-11-28T02:34:00.411Z,20.26
2018-11-28T02:36:28.690Z,20.31
2018-11-28T02:38:56.904Z,20.35
2018-11-28T02:41:25.112Z,20.37
2018-11-28T02:43:53.596Z,20.37
2018-11-28T02:46:26.849Z,20.39
2018-11-28T02:48:55.103Z,20.39
2018-11-28T02:51:23.305Z,20.40
2018-11-28T02:53:51.500Z,20.40
2018-11-28T02:56:19.723Z,20.40
2018-11-28T02:58:48.199Z,20.39
2018-11-28T03:01:16.391Z,20.39
2018-11-28T03:03:44.875Z,20.39
2018-11-28T03:06:13.584Z,20.41
2018-11-28T03:08:41.806Z,20.43
2018-11-28T03:11:10.210Z,20.41
2018-11-28T03:13:38.660Z,20.40
2018-11-28T03:16:19.799Z,20.38
2018-11-28T03:18:48.279Z,20.37
2018-11-28T03:21:16.772Z,20.36
2018-11-28T03:23:45.274Z,20.30
2018-11-28T03:26:14.108Z,20.30
2018-11-28T03:28:42.309Z,20.27
2018-11-28T03:31:10.635Z,20.26
2018-11-28T03:33:38.827Z,20.28
2018-11-28T03:36:07.320Z,20.25
2018-11-28T03:38:35.851Z,20.23
2018-11-28T03:41:04.204Z,20.22
2018-11-28T03:43:32.507Z,20.21
2018-11-28T03:46:00.707Z,20.18
2018-11-28T03:48:29.171Z,20.19
2018-11-28T03:50:57.471Z,20.23
2018-11-28T03:53:25.803Z,20.16
2018-11-28T03:55:54.244Z,20.15
2018-11-28T03:58:22.801Z,20.18
2018-11-28T04:00:51.131Z,20.19
2018-11-28T04:03:19.326Z,20.20
2018-11-28T04:05:47.516Z,20.20
2018-11-28T04:08:16.039Z,20.21
2018-11-28T04:10:44.496Z,20.21
2018-11-28T04:13:12.714Z,20.22
2018-11-28T04:15:41.187Z,20.22
2018-11-28T04:18:09.395Z,20.21
2018-11-28T04:20:37.945Z,20.20
2018-11-28T04:23:06.136Z,20.21
2018-11-28T04:25:34.639Z,20.18
2018-11-28T04:28:02.907Z,20.18
2018-11-28T04:30:31.095Z,20.17
2018-11-28T04:32:59.630Z,20.15
2018-11-28T04:35:30.620Z,20.14
2018-11-28T04:37:58.827Z,20.14
2018-11-28T04:40:27.020Z,20.12
2018-11-28T04:42:55.582Z,20.12
2018-11-28T04:45:24.268Z,20.11
2018-11-28T04:47:53.114Z,20.11
2018-11-28T04:50:21.551Z,20.11
2018-11-28T04:52:49.754Z,20.06
2018-11-28T04:55:18.355Z,20.05
2018-11-28T04:57:46.589Z,20.03
2018-11-28T05:00:18.189Z,20.03
2018-11-28T05:02:46.484Z,20.01
2018-11-28T05:05:14.693Z,20.01
2018-11-28T05:07:43.751Z,20.04
2018-11-28T05:10:21.547Z,20.01
2018-11-28T05:12:50.015Z,20.01
2018-11-28T05:15:19.093Z,20.02
2018-11-28T05:17:50.804Z,19.98
2018-11-28T05:20:22.839Z,19.99
2018-11-28T05:22:51.109Z,20.03
2018-11-28T05:25:22.984Z,20.07
2018-11-28T05:27:54.757Z,20.12
2018-11-28T05:30:23.807Z,20.15
2018-11-28T05:32:52.209Z,20.16
2018-11-28T05:35:21.484Z,20.20
2018-11-28T05:37:49.679Z,20.09
2018-11-28T05:40:21.155Z,19.50
2018-11-28T05:42:50.350Z,19.27
2018-11-28T05:45:18.896Z,18.96
2018-11-28T05:47:47.535Z,18.56
2018-11-28T05:50:19.476Z,18.46
2018-11-28T05:52:56.402Z,18.28
2018-11-28T05:55:30.912Z,18.37
2018-11-28T05:57:59.222Z,18.18
2018-11-28T06:00:30.474Z,18.12
2018-11-28T06:02:58.678Z,18.06
2018-11-28T06:05:27.404Z,18.04
2018-11-28T06:07:55.701Z,17.98
2018-11-28T06:12:14.081Z,18.38
2018-11-28T06:14:42.785Z,17.44
2018-11-28T06:17:11.000Z,16.83
2018-11-28T06:19:39.587Z,16.66
2018-11-28T06:22:08.432Z,16.65
2018-11-28T06:24:38.023Z,17.20
2018-11-28T06:27:06.356Z,17.91
2018-11-28T06:29:34.983Z,18.32
2018-11-28T06:32:03.247Z,18.51
2018-11-28T06:34:31.469Z,17.90
2018-11-28T06:36:59.709Z,17.53
2018-11-28T06:39:28.001Z,17.08
2018-11-28T06:41:56.311Z,16.64
2018-11-28T06:44:24.630Z,16.31
2018-11-28T06:46:53.631Z,16.00
2018-11-28T06:49:22.378Z,15.77
2018-11-28T06:51:51.017Z,16.98
2018-11-28T06:54:19.220Z,17.79
2018-11-28T06:56:47.495Z,18.22
2018-11-28T06:59:16.140Z,18.34
2018-11-28T07:01:48.212Z,18.41
2018-11-28T07:04:20.921Z,18.45
2018-11-28T07:06:49.446Z,18.54
2018-11-28T07:09:17.874Z,18.63
2018-11-28T07:11:46.231Z,18.61
2018-11-28T07:14:14.769Z,18.59
2018-11-28T07:16:43.328Z,18.55
2018-11-28T07:19:11.873Z,18.55
2018-11-28T07:21:40.147Z,18.53
2018-11-28T07:24:08.580Z,18.56
2018-11-28T07:26:36.782Z,18.58
2018-11-28T07:29:05.266Z,18.58
2018-11-28T07:31:33.759Z,18.65
2018-11-28T07:34:01.959Z,18.62
2018-11-28T07:36:30.858Z,18.57
2018-11-28T07:38:59.570Z,18.62
2018-11-28T07:41:27.944Z,18.64
2018-11-28T07:43:58.897Z,18.64
2018-11-28T07:46:27.264Z,18.67
2018-11-28T07:48:55.482Z,18.61
2018-11-28T07:51:23.835Z,18.66
2018-11-28T07:53:52.052Z,18.67
2018-11-28T07:56:20.512Z,18.70
2018-11-28T07:58:49.096Z,18.71
2018-11-28T08:01:17.611Z,18.64
2018-11-28T08:03:46.072Z,18.60
2018-11-28T08:06:14.275Z,18.57
2018-11-28T08:08:42.920Z,18.54
2018-11-28T08:11:11.254Z,18.53
2018-11-28T08:13:40.051Z,18.57
2018-11-28T08:16:08.660Z,18.56
2018-11-28T08:18:37.003Z,18.53
2018-11-28T08:21:05.372Z,18.50
2018-11-28T08:23:34.012Z,18.51
2018-11-28T08:26:02.342Z,18.49
2018-11-28T08:28:30.888Z,18.53
2018-11-28T08:30:59.344Z,18.52
2018-11-28T08:33:27.549Z,18.51
2018-11-28T08:35:56.101Z,18.53
2018-11-28T08:38:24.309Z,18.53
2018-11-28T08:40:52.831Z,18.57
2018-11-28T08:43:24.423Z,18.57
2018-11-28T08:45:53.160Z,18.57
2018-11-28T08:48:22.049Z,18.59
2018-11-28T08:50:51.139Z,18.57
2018-11-28T08:53:20.264Z,18.60
2018-11-28T08:55:48.545Z,18.59
2018-11-28T08:58:16.766Z,18.63
2018-11-28T09:00:45.259Z,18.61
2018-11-28T09:03:14.055Z,18.63
2018-11-28T09:05:42.611Z,18.64
2018-11-28T09:08:11.096Z,18.64
2018-11-28T09:10:39.379Z,18.66
2018-11-28T09:13:07.989Z,18.64
2018-11-28T09:15:36.290Z,18.66
2018-11-28T09:18:04.589Z,18.65
2018-11-28T09:20:33.887Z,18.63
2018-11-28T09:23:02.301Z,18.64
2018-11-28T09:25:30.505Z,18.67
2018-11-28T09:27:59.379Z,18.71
2018-11-28T09:30:27.707Z,18.68
2018-11-28T09:32:55.898Z,18.65
2018-11-28T09:35:24.163Z,18.63
2018-11-28T09:37:52.679Z,18.64
2018-11-28T09:40:21.519Z,18.65
2018-11-28T09:42:50.095Z,18.66
2018-11-28T09:45:19.007Z,18.61
2018-11-28T09:47:47.637Z,18.61
2018-11-28T09:50:19.333Z,18.61
2018-11-28T09:52:47.696Z,18.61
2018-11-28T09:55:34.960Z,18.64
2018-11-28T09:58:03.176Z,18.62
2018-11-28T10:00:31.372Z,18.63
2018-11-28T10:03:00.472Z,18.66
2018-11-28T10:05:29.564Z,18.64
2018-11-28T10:07:57.774Z,18.64
2018-11-28T10:10:26.016Z,18.64
2018-11-28T10:12:54.211Z,18.62
2018-11-28T10:15:22.916Z,18.64
2018-11-28T10:17:51.114Z,18.63
2018-11-28T10:20:19.746Z,18.63
2018-11-28T10:22:48.348Z,18.62
2018-11-28T10:25:19.898Z,18.59
2018-11-28T10:27:48.728Z,18.70
2018-11-28T10:30:17.706Z,18.74
2018-11-28T10:32:46.076Z,18.75
2018-11-28T10:35:14.604Z,18.75
2018-11-28T10:37:42.809Z,18.76
2018-11-28T10:40:12.024Z,18.77
2018-11-28T10:42:40.216Z,18.74
2018-11-28T10:45:09.291Z,18.74
2018-11-28T10:47:37.730Z,18.76
2018-11-28T10:50:06.553Z,18.78
2018-11-28T10:52:34.764Z,18.77
2018-11-28T10:55:03.185Z,18.77
2018-11-28T10:57:31.655Z,18.75
2018-11-28T10:59:59.856Z,18.76
2018-11-28T11:02:45.845Z,18.75
2018-11-28T11:05:31.927Z,18.72
2018-11-28T11:08:18.129Z,18.63
2018-11-28T11:11:03.944Z,18.69
2018-11-28T11:13:49.685Z,18.73
2018-11-28T11:16:30.708Z,18.72
2018-11-28T11:18:59.455Z,18.73
2018-11-28T11:21:28.015Z,18.69
2018-11-28T11:23:56.415Z,18.72
2018-11-28T11:26:25.725Z,18.68
2018-11-28T11:28:53.920Z,18.70
2018-11-28T11:31:22.196Z,18.67
2018-11-28T11:33:51.650Z,18.67
2018-11-28T11:36:20.173Z,18.68
2018-11-28T11:38:48.395Z,18.67
2018-11-28T11:41:17.126Z,18.68
2018-11-28T11:43:45.624Z,18.67
2018-11-28T11:46:14.201Z,18.64
2018-11-28T11:48:42.668Z,18.61
2018-11-28T11:51:10.872Z,18.61
2018-11-28T11:53:39.343Z,18.53
2018-11-28T11:56:07.557Z,18.47
2018-11-28T11:58:35.758Z,18.56
2018-11-28T12:01:04.264Z,18.52
2018-11-28T12:03:32.568Z,18.55
2018-11-28T12:06:00.814Z,18.61
2018-11-28T12:08:29.462Z,18.59
2018-11-28T12:10:59.174Z,18.65
2018-11-28T12:13:27.481Z,18.70
2018-11-28T12:15:55.694Z,18.72
2018-11-28T12:18:24.023Z,18.73
2018-11-28T12:20:53.552Z,18.73
2018-11-28T12:23:22.123Z,18.73
2018-11-28T12:25:50.317Z,18.69
2018-11-28T12:28:18.636Z,18.67
2018-11-28T12:30:47.183Z,18.70
2018-11-28T12:33:15.463Z,18.72
2018-11-28T12:35:43.758Z,18.72
2018-11-28T12:38:12.279Z,18.62
2018-11-28T12:40:40.759Z,18.65
2018-11-28T12:43:09.672Z,18.68
2018-11-28T12:45:49.189Z,18.70
2018-11-28T12:48:17.104Z,18.67
2018-11-28T12:50:45.416Z,18.66
2018-11-28T12:53:14.266Z,18.63
2018-11-28T12:55:42.928Z,18.65
2018-11-28T12:58:14.975Z,18.58
2018-11-28T13:00:43.216Z,18.67
2018-11-28T13:03:12.300Z,18.68
2018-11-28T13:05:40.828Z,18.69
2018-11-28T13:08:09.038Z,18.70
2018-11-28T13:10:37.779Z,18.69
2018-11-28T13:13:07.087Z,18.61
2018-11-28T13:15:35.461Z,18.63
2018-11-28T13:18:03.931Z,18.55
2018-11-28T13:20:32.169Z,18.57
2018-11-28T13:23:00.656Z,18.60
2018-11-28T13:25:28.852Z,18.55
2018-11-28T13:28:05.410Z,18.53
2018-11-28T13:30:33.678Z,18.55
2018-11-28T13:33:01.916Z,18.58
2018-11-28T13:35:30.499Z,18.57
2018-11-28T13:38:05.761Z,18.53
2018-11-28T13:40:33.971Z,18.56
2018-11-28T13:43:02.438Z,18.60
2018-11-28T13:45:34.044Z,18.64
2018-11-28T13:48:02.259Z,18.64
2018-11-28T13:50:30.476Z,18.68
2018-11-28T13:52:59.079Z,18.67
2018-11-28T13:55:39.649Z,18.70
2018-11-28T13:58:00.476Z,18.72
2018-11-28T14:00:28.782Z,18.70
2018-11-28T14:02:57.014Z,18.69
2018-11-28T14:05:25.312Z,18.70
2018-11-28T14:07:53.549Z,18.71
2018-11-28T14:10:22.192Z,18.72
2018-11-28T14:12:50.403Z,18.71
2018-11-28T14:15:19.075Z,18.70
2018-11-28T14:17:56.765Z,18.62
2018-11-28T14:20:25.335Z,18.70
2018-11-28T14:22:56.159Z,18.65
2018-11-28T14:25:25.614Z,18.61
2018-11-28T14:27:54.443Z,18.64
2018-11-28T14:30:23.016Z,18.65
2018-11-28T14:32:51.753Z,18.62
2018-11-28T14:35:20.304Z,18.59
2018-11-28T14:37:48.575Z,18.56
2018-11-28T14:40:17.323Z,18.56
2018-11-28T14:42:46.367Z,18.62
2018-11-28T14:45:17.890Z,18.60
2018-11-28T14:47:46.356Z,18.55
2018-11-28T14:50:18.288Z,18.61
2018-11-28T14:52:46.521Z,18.60
2018-11-28T14:55:15.267Z,18.56
2018-11-28T14:57:43.493Z,18.61
2018-11-28T15:00:12.609Z,18.61
2018-11-28T15:02:41.505Z,18.63
2018-11-28T15:05:37.898Z,18.61
2018-11-28T15:08:07.919Z,18.56
2018-11-28T15:11:07.173Z,18.52
2018-11-28T15:13:35.391Z,18.54
2018-11-28T15:16:03.621Z,18.60
2018-11-28T15:18:32.099Z,18.53
2018-11-28T15:21:00.308Z,18.48
2018-11-28T15:23:28.936Z,18.48
2018-11-28T15:25:57.127Z,18.59
2018-11-28T15:28:37.503Z,18.59
2018-11-28T15:31:06.268Z,18.61
2018-11-28T15:33:35.003Z,18.65
2018-11-28T15:36:03.235Z,18.67
2018-11-28T15:38:31.429Z,18.67
2018-11-28T15:41:00.045Z,18.67
2018-11-28T15:43:28.542Z,18.67
2018-11-28T15:45:56.843Z,18.68
2018-11-28T15:48:27.388Z,18.71
2018-11-28T15:50:54.275Z,18.69
2018-11-28T15:53:22.648Z,18.71
2018-11-28T15:55:50.967Z,18.70
2018-11-28T15:58:19.969Z,18.70
2018-11-28T16:00:48.599Z,18.68
2018-11-28T16:03:17.722Z,18.68
2018-11-28T16:05:46.294Z,18.69
2018-11-28T16:08:14.519Z,18.68
2018-11-28T16:10:43.676Z,18.67
2018-11-28T16:13:13.423Z,18.65
2018-11-28T16:15:48.651Z,18.65
2018-11-28T16:18:17.052Z,18.59
2018-11-28T16:20:45.252Z,18.59
2018-11-28T16:23:13.487Z,18.63
2018-11-28T16:25:44.504Z,18.58
2018-11-28T16:28:13.015Z,18.58
2018-11-28T16:30:41.254Z,18.56
2018-11-28T16:33:09.624Z,18.56
2018-11-28T16:36:13.796Z,18.58
2018-11-28T16:38:44.675Z,18.58
2018-11-28T16:41:12.646Z,18.56
2018-11-28T16:43:40.847Z,18.57
2018-11-28T16:46:09.259Z,18.58
2018-11-28T16:48:37.560Z,18.52
2018-11-28T16:51:05.920Z,18.51
2018-11-28T16:53:34.507Z,18.48
2018-11-28T16:56:02.827Z,18.57
2018-11-28T16:58:33.777Z,18.58
2018-11-28T17:01:13.831Z,18.62
2018-11-28T17:03:42.293Z,18.64
2018-11-28T17:06:12.261Z,18.68
2018-11-28T17:08:43.919Z,18.70
2018-11-28T17:11:14.791Z,18.70
2018-11-28T17:13:43.124Z,18.70
2018-11-28T17:16:11.339Z,18.68
2018-11-28T17:18:39.591Z,18.68
2018-11-28T17:21:07.904Z,18.67
2018-11-28T17:23:39.369Z,18.66
2018-11-28T17:26:07.636Z,18.59
2018-11-28T17:28:38.790Z,18.63
2018-11-28T17:31:09.842Z,18.65
2018-11-28T17:33:40.714Z,18.64
2018-11-28T17:36:13.858Z,18.67
2018-11-28T17:38:42.519Z,18.69
2018-11-28T17:41:12.786Z,18.69
2018-11-28T17:43:42.180Z,18.70
2018-11-28T17:46:10.515Z,18.69
2018-11-28T17:48:41.472Z,18.68
2018-11-28T17:51:09.698Z,18.67
2018-11-28T17:53:38.127Z,18.66
2018-11-28T17:56:06.905Z,18.64
2018-11-28T17:58:35.120Z,18.65
2018-11-28T18:01:13.153Z,18.64
2018-11-28T18:03:36.364Z,18.58
2018-11-28T18:06:04.892Z,18.60
2018-11-28T18:08:33.308Z,18.53
2018-11-28T18:11:30.367Z,18.56
2018-11-28T18:13:59.673Z,18.56
2018-11-28T18:16:29.607Z,18.47
2018-11-28T18:18:57.095Z,18.57
2018-11-28T18:21:25.621Z,18.55
2018-11-28T18:23:53.879Z,18.54
2018-11-28T18:26:23.717Z,18.53
2018-11-28T18:28:53.127Z,18.54
2018-11-28T18:31:21.987Z,18.57
2018-11-28T18:33:50.643Z,18.56
2018-11-28T18:36:19.558Z,18.58
2018-11-28T18:38:48.477Z,18.62
2018-11-28T18:41:16.776Z,18.61
2018-11-28T18:43:44.968Z,18.62
2018-11-28T18:46:13.323Z,18.62
2018-11-28T18:48:41.885Z,18.62
2018-11-28T18:51:10.094Z,18.65
2018-11-28T18:53:38.592Z,18.63
2018-11-28T18:56:07.037Z,18.61
2018-11-28T18:58:35.920Z,18.65
2018-11-28T19:01:04.167Z,18.66
2018-11-28T19:03:35.443Z,18.65
2018-11-28T19:06:03.976Z,18.66
2018-11-28T19:08:32.860Z,18.63
2018-11-28T19:11:01.695Z,18.61
2018-11-28T19:13:30.241Z,18.59
2018-11-28T19:15:58.511Z,18.64
2018-11-28T19:18:27.733Z,18.63
2018-11-28T19:20:56.157Z,18.64
2018-11-28T19:23:24.707Z,18.63
2018-11-28T19:25:55.943Z,18.66
2018-11-28T19:28:25.029Z,18.64
2018-11-28T19:30:53.325Z,18.62
2018-11-28T19:33:21.947Z,18.58
2018-11-28T19:35:50.147Z,18.29
2018-11-28T19:38:18.364Z,18.54
2018-11-28T19:40:59.600Z,18.58
2018-11-28T19:43:27.825Z,18.61
2018-11-28T19:45:56.599Z,18.63
2018-11-28T19:48:24.815Z,18.60
2018-11-28T19:50:53.287Z,18.59
2018-11-28T19:53:24.517Z,18.53
2018-11-28T19:55:52.775Z,18.57
2018-11-28T19:58:21.248Z,18.54
2018-11-28T20:00:49.828Z,18.56
2018-11-28T20:03:19.532Z,18.58
2018-11-28T20:05:48.729Z,18.58
2018-11-28T20:08:17.032Z,18.56
2018-11-28T20:10:49.337Z,18.52
2018-11-28T20:13:19.771Z,18.51
2018-11-28T20:15:48.829Z,18.52
2018-11-28T20:18:17.048Z,18.53
2018-11-28T20:20:45.260Z,18.53
2018-11-28T20:23:13.584Z,18.53
2018-11-28T20:25:41.803Z,18.54
2018-11-28T20:28:11.846Z,18.53
2018-11-28T20:30:40.017Z,18.59
2018-11-28T20:33:08.559Z,18.59
2018-11-28T20:35:36.812Z,18.61
2018-11-28T20:38:05.099Z,18.62
2018-11-28T20:40:33.397Z,18.63
2018-11-28T20:43:01.853Z,18.62
2018-11-28T20:45:30.092Z,18.63
2018-11-28T20:48:04.234Z,18.64
2018-11-28T20:50:32.788Z,18.61
2018-11-28T20:53:02.087Z,18.66
2018-11-28T20:55:30.464Z,18.65
2018-11-28T20:57:59.111Z,18.62
2018-11-28T21:00:27.658Z,18.60
2018-11-28T21:02:56.233Z,18.63
2018-11-28T21:05:24.725Z,18.60
2018-11-28T21:07:53.543Z,18.60
2018-11-28T21:10:40.935Z,18.59
2018-11-28T21:13:10.145Z,18.59
2018-11-28T21:15:38.480Z,18.61
2018-11-28T21:18:07.338Z,18.59
2018-11-28T21:20:35.674Z,18.56
2018-11-28T21:23:04.995Z,18.57
2018-11-28T21:25:33.634Z,18.56
2018-11-28T21:28:02.398Z,18.54
2018-11-28T21:30:31.256Z,18.53
2018-11-28T21:32:59.547Z,18.53
2018-11-28T21:35:51.903Z,18.53
2018-11-28T21:38:20.533Z,18.52
2018-11-28T21:40:49.050Z,18.50
2018-11-28T21:43:17.629Z,18.51
2018-11-28T21:45:45.837Z,18.50
2018-11-28T21:48:14.036Z,18.53
2018-11-28T21:50:42.347Z,18.52
2018-11-28T21:53:10.926Z,18.51
2018-11-28T21:55:39.207Z,18.51
2018-11-28T21:58:07.456Z,18.51
2018-11-28T22:00:36.783Z,18.51
2018-11-28T22:03:05.918Z,18.53
2018-11-28T22:05:34.671Z,18.55
2018-11-28T22:08:02.895Z,18.55
2018-11-28T22:10:34.216Z,18.57
2018-11-28T22:13:02.799Z,18.61
2018-11-28T22:15:31.034Z,18.61
2018-11-28T22:17:59.440Z,18.61
2018-11-28T22:20:27.822Z,18.59
2018-11-28T22:22:56.046Z,18.60
2018-11-28T22:25:26.996Z,18.59
2018-11-28T22:27:55.299Z,18.62
2018-11-28T22:30:27.287Z,18.60
2018-11-28T22:32:55.575Z,18.60
2018-11-28T22:35:24.821Z,18.58
2018-11-28T22:37:53.065Z,18.59
2018-11-28T22:40:21.982Z,18.57
2018-11-28T22:42:50.508Z,18.58
2018-11-28T22:45:22.872Z,18.56
2018-11-28T22:47:51.066Z,18.58
2018-11-28T22:50:19.415Z,18.57
2018-11-28T22:52:47.907Z,18.57
2018-11-28T22:55:16.411Z,18.58
2018-11-28T22:57:44.997Z,18.60
2018-11-28T23:00:16.849Z,18.57
2018-11-28T23:02:54.930Z,18.67
2018-11-28T23:05:24.704Z,18.84
2018-11-28T23:07:53.000Z,19.03
2018-11-28T23:10:21.224Z,19.21
2018-11-28T23:12:51.040Z,19.29
2018-11-28T23:15:19.311Z,19.45
2018-11-28T23:17:47.779Z,19.41
2018-11-28T23:20:16.239Z,19.39
2018-11-28T23:22:44.435Z,19.40
2018-11-28T23:25:12.865Z,19.44
2018-11-28T23:27:43.659Z,19.42
2018-11-28T23:30:15.743Z,19.35
2018-11-28T23:32:44.058Z,19.26
2018-11-28T23:35:12.568Z,19.26
2018-11-28T23:37:41.201Z,19.24
2018-11-28T23:40:21.426Z,19.24
2018-11-28T23:43:00.450Z,19.22
2018-11-28T23:45:28.648Z,19.22
2018-11-28T23:47:56.848Z,19.23
2018-11-28T23:50:25.560Z,19.23
2018-11-28T23:52:54.227Z,19.20
2018-11-28T23:55:22.912Z,19.21
2018-11-28T23:57:51.135Z,19.18
